KPVD/PVD METAR and TAF weather

Enter ICAO airport designator
Station Type Date Time Source
KPVD METAR 2020/04/03 05:51 UTC NOAA

KPVD 030551Z AUTO 34014G21KT 10SM -RA OVC018 06/03 A2945 RMK AO2 RAE0456B40 SLP972 P0000 60005 T00560033 10061 20044 58013


Station Type Date Time Source
KPVD Decoded METAR 2020/04/03 05:51 UTC NOAA

PROVIDENCE GREEN STATE AIRPORT , RI, United States (KPVD) 41-44N 071-26W 16M
Apr 03, 2020 - 01:51 AM EDT / 2020.04.03 0551 UTC
Wind: from the NNW (340 degrees) at 16 MPH (14 KT) gusting to 24 MPH (21 KT):0
Visibility: 10 mile(s):0
Sky conditions: overcast
Weather: light rain
Precipitation last hour: A trace
Temperature: 42.1 F (5.6 C)
Dew Point: 37.9 F (3.3 C)
Relative Humidity: 85%
Pressure (altimeter): 29.45 in. Hg (997 hPa)
Pressure tendency: 0.04 inches (1.3 hPa) lower than three hours ago
ob: KPVD 030551Z AUTO 34014G21KT 10SM -RA OVC018 06/03 A2945 RMK AO2 RAE0456B40 SLP972 P0000 60005 T00560033 10061 20044 58013
cycle: 6

Station Type Date Time Source
KPVD TAF 2020/04/03 06:40 UTC NOAA

TAF KPVD 030538Z 0306/0406 34015G25KT P6SM -RA OVC025
FM031000 35019G30KT 3SM -RA BR OVC015
FM031400 01023G33KT 3SM -RA BR OVC015
FM032000 02021G33KT 3SM -RA BR OVC010
FM032300 02022G29KT 4SM -RA BR OVC015

Example: see airport list